createdAt,value
2022-08-05T00:00:16.000Z,9.25
2022-08-05T00:02:43.888Z,5.63
2022-08-05T00:06:03.179Z,6.05
2022-08-05T00:08:05.045Z,10.10
2022-08-05T00:10:31.622Z,7.13
2022-08-05T00:12:58.576Z,8.90
2022-08-05T00:15:55.410Z,6.25
2022-08-05T00:18:21.579Z,6.25
2022-08-05T00:20:48.860Z,7.50
2022-08-05T00:23:15.435Z,8.45
2022-08-05T00:25:45.994Z,7.18
2022-08-05T00:28:13.038Z,6.60
2022-08-05T00:30:39.558Z,4.35
2022-08-05T00:33:15.641Z,5.75
2022-08-05T00:36:15.111Z,6.25
2022-08-05T00:38:41.402Z,4.90
2022-08-05T00:41:11.628Z,6.47
2022-08-05T00:43:47.192Z,4.55
2022-08-05T00:46:16.307Z,6.57
2022-08-05T00:48:50.722Z,5.82
2022-08-05T00:51:51.588Z,7.60
2022-08-05T00:54:06.132Z,4.88
2022-08-05T00:56:32.577Z,5.75
2022-08-05T00:58:59.197Z,7.35
2022-08-05T01:01:42.666Z,6.00
2022-08-05T01:04:13.854Z,8.25
2022-08-05T01:06:40.914Z,5.57
2022-08-05T01:09:10.044Z,7.25
2022-08-05T01:11:39.157Z,6.70
2022-08-05T01:14:33.253Z,7.05
2022-08-05T01:17:06.972Z,8.25
2022-08-05T01:20:02.213Z,7.70
2022-08-05T01:22:57.459Z,9.45
2022-08-05T01:25:40.976Z,6.43
2022-08-05T01:28:43.694Z,5.85
2022-08-05T01:31:33.012Z,7.40
2022-08-05T01:34:47.409Z,7.22
2022-08-05T01:37:25.073Z,7.13
2022-08-05T01:39:58.705Z,8.07
2022-08-05T01:42:27.675Z,6.13
2022-08-05T01:44:56.635Z,9.48
2022-08-05T01:47:38.835Z,6.38
2022-08-05T01:50:15.013Z,9.60
2022-08-05T01:52:44.262Z,6.53
2022-08-05T01:55:13.341Z,7.20
2022-08-05T01:58:29.824Z,5.78
2022-08-05T02:00:33.453Z,6.55
2022-08-05T02:03:29.267Z,9.32
2022-08-05T02:06:03.427Z,6.38
2022-08-05T02:08:54.834Z,6.18
2022-08-05T02:11:33.606Z,4.78
2022-08-05T02:14:12.918Z,7.90
2022-08-05T02:16:52.858Z,9.35
2022-08-05T02:19:33.506Z,8.23
2022-08-05T02:22:17.531Z,6.43
2022-08-05T02:27:30.111Z,6.68
2022-08-05T02:30:11.883Z,6.05
2022-08-05T02:32:40.223Z,5.30
2022-08-05T02:35:18.997Z,5.65
2022-08-05T02:37:56.536Z,8.25
2022-08-05T02:40:27.571Z,5.35
2022-08-05T02:42:55.562Z,7.00
2022-08-05T02:45:24.481Z,3.75
2022-08-05T02:48:06.792Z,5.80
2022-08-05T02:50:44.394Z,8.82
2022-08-05T02:53:18.803Z,8.48
2022-08-05T02:55:54.168Z,6.53
2022-08-05T02:58:27.376Z,6.82
2022-08-05T03:00:56.955Z,4.57
2022-08-05T03:03:24.063Z,4.10
2022-08-05T03:06:53.762Z,7.82
2022-08-05T03:08:42.665Z,6.72
2022-08-05T03:11:54.522Z,5.60
2022-08-05T03:14:07.936Z,6.30
2022-08-05T03:16:34.658Z,9.60
2022-08-05T03:19:12.722Z,10.30
2022-08-05T03:21:48.731Z,7.57
2022-08-05T03:24:17.223Z,7.50
2022-08-05T03:26:43.751Z,7.50
2022-08-05T03:29:17.285Z,6.63
2022-08-05T03:31:57.136Z,6.53
2022-08-05T03:34:28.245Z,7.57
2022-08-05T03:36:55.248Z,8.75
2022-08-05T03:39:27.002Z,6.57
2022-08-05T03:41:56.333Z,5.85
2022-08-05T03:44:23.502Z,8.07
2022-08-05T03:46:50.058Z,12.18
2022-08-05T03:49:16.563Z,9.45
2022-08-05T03:52:39.199Z,8.93
2022-08-05T03:55:51.847Z,7.10
2022-08-05T03:57:45.446Z,8.32
2022-08-05T04:00:15.656Z,7.07
2022-08-05T04:02:57.943Z,6.30
2022-08-05T04:05:33.844Z,8.25
2022-08-05T04:08:14.531Z,7.90
2022-08-05T04:10:43.691Z,12.07
2022-08-05T04:13:11.750Z,7.07
2022-08-05T04:15:38.654Z,6.88
2022-08-05T04:18:22.350Z,10.35
2022-08-05T04:20:56.705Z,8.85
2022-08-05T04:24:05.344Z,7.10
2022-08-05T04:26:13.668Z,7.47
2022-08-05T04:28:40.311Z,9.50
2022-08-05T04:31:17.953Z,7.28
2022-08-05T04:34:18.576Z,8.38
2022-08-05T04:36:46.241Z,9.98
2022-08-05T04:39:16.600Z,11.00
2022-08-05T04:41:43.060Z,8.93
2022-08-05T04:44:12.408Z,11.63
2022-08-05T04:46:39.091Z,9.07
2022-08-05T04:49:12.134Z,10.23
2022-08-05T04:51:41.150Z,8.63
2022-08-05T04:54:09.079Z,11.95
2022-08-05T04:56:37.086Z,11.77
2022-08-05T04:59:21.839Z,11.88
2022-08-05T05:02:07.900Z,9.55
2022-08-05T05:04:38.430Z,15.32
2022-08-05T05:07:11.520Z,10.57
2022-08-05T05:09:42.393Z,11.27
2022-08-05T05:12:11.548Z,13.57
2022-08-05T05:14:38.235Z,9.68
2022-08-05T05:17:22.905Z,9.18
2022-08-05T05:19:53.281Z,8.20
2022-08-05T05:22:23.445Z,7.85
2022-08-05T05:24:57.336Z,11.00
2022-08-05T05:27:44.889Z,8.40
2022-08-05T05:30:31.463Z,13.70
2022-08-05T05:33:09.192Z,11.07
2022-08-05T05:35:45.660Z,7.53
2022-08-05T05:38:13.786Z,11.30
2022-08-05T05:40:48.369Z,10.85
2022-08-05T05:43:27.573Z,8.75
2022-08-05T05:46:12.178Z,12.30
2022-08-05T05:48:41.726Z,10.45
2022-08-05T05:51:15.454Z,9.32
2022-08-05T05:53:54.397Z,8.93
2022-08-05T05:56:33.306Z,11.02
2022-08-05T05:59:07.736Z,12.68
2022-08-05T06:01:38.107Z,14.57
2022-08-05T06:04:14.435Z,11.68
2022-08-05T06:06:47.634Z,10.45
2022-08-05T06:09:17.729Z,14.27
2022-08-05T06:12:02.117Z,12.93
2022-08-05T06:14:34.832Z,11.73
2022-08-05T06:17:31.956Z,7.65
2022-08-05T06:19:56.882Z,10.57
2022-08-05T06:22:33.765Z,10.00
2022-08-05T06:25:01.664Z,12.00
2022-08-05T06:28:12.352Z,10.05
2022-08-05T06:30:34.482Z,8.73
2022-08-05T06:33:01.321Z,14.02
2022-08-05T06:36:07.777Z,10.75
2022-08-05T06:38:14.084Z,11.10
2022-08-05T06:40:44.708Z,9.68
2022-08-05T06:43:58.329Z,11.65
2022-08-05T06:46:06.528Z,10.63
2022-08-05T06:48:55.716Z,10.60
2022-08-05T06:51:23.946Z,8.18
2022-08-05T06:53:56.922Z,9.07
2022-08-05T06:56:26.328Z,8.45
2022-08-05T06:58:53.472Z,11.10
2022-08-05T07:01:21.110Z,9.40
2022-08-05T07:03:47.731Z,10.00
2022-08-05T07:06:15.171Z,12.02
2022-08-05T07:08:47.892Z,9.25
2022-08-05T07:11:22.339Z,12.88
2022-08-05T07:14:15.453Z,10.82
2022-08-05T07:16:51.002Z,7.93
2022-08-05T07:22:28.875Z,9.13
2022-08-05T07:25:23.685Z,9.73
2022-08-05T07:27:56.482Z,8.25
2022-08-05T07:30:32.058Z,10.30
2022-08-05T07:32:59.928Z,6.85
2022-08-05T07:36:04.716Z,11.25
2022-08-05T07:38:31.977Z,10.20
2022-08-05T07:41:04.431Z,7.50
2022-08-05T07:43:43.802Z,7.85
2022-08-05T07:46:24.425Z,7.75
2022-08-05T07:49:04.077Z,8.40
2022-08-05T07:51:52.883Z,10.15
2022-08-05T07:54:30.384Z,6.95
2022-08-05T07:57:02.072Z,9.05
2022-08-05T07:59:44.553Z,12.82
2022-08-05T08:02:16.934Z,6.45
2022-08-05T08:04:48.487Z,9.02
2022-08-05T08:07:17.908Z,7.65
2022-08-05T08:09:45.192Z,9.25
2022-08-05T08:12:36.993Z,7.78
2022-08-05T08:15:02.463Z,7.25
2022-08-05T08:17:30.912Z,10.02
2022-08-05T08:20:21.697Z,6.55
2022-08-05T08:22:44.099Z,9.20
2022-08-05T08:25:15.633Z,5.55
2022-08-05T08:27:47.314Z,6.43
2022-08-05T08:30:27.697Z,7.28
2022-08-05T08:33:04.470Z,4.78
2022-08-05T08:35:40.803Z,5.75
2022-08-05T08:38:08.234Z,5.75
2022-08-05T08:40:39.143Z,6.93
2022-08-05T08:45:19.964Z,10.25
2022-08-05T08:45:54.885Z,3.65
2022-08-05T08:48:41.364Z,4.43
2022-08-05T08:52:02.270Z,4.65
2022-08-05T08:53:56.022Z,6.15
2022-08-05T08:56:23.555Z,5.40
2022-08-05T08:58:53.907Z,5.70
2022-08-05T09:01:20.448Z,8.13
2022-08-05T09:03:52.850Z,5.72
2022-08-05T09:06:27.901Z,4.85
2022-08-05T09:08:56.961Z,3.40
2022-08-05T09:11:53.412Z,5.78
2022-08-05T09:14:57.460Z,3.47
2022-08-05T09:16:59.112Z,4.10
2022-08-05T09:19:27.999Z,3.70
2022-08-05T09:22:22.971Z,3.53
2022-08-05T09:25:14.034Z,4.13
2022-08-05T09:28:06.028Z,3.42
2022-08-05T09:30:34.238Z,4.20
2022-08-05T09:33:04.696Z,1.63
2022-08-05T09:35:31.418Z,3.75
2022-08-05T09:38:12.357Z,2.47
2022-08-05T09:40:52.515Z,3.38
2022-08-05T09:43:41.043Z,1.70
2022-08-05T09:46:28.519Z,3.08
2022-08-05T09:49:08.226Z,1.35
2022-08-05T09:51:49.669Z,1.20
2022-08-05T09:56:55.388Z,2.72
2022-08-05T09:59:24.290Z,4.43
2022-08-05T10:01:58.284Z,2.47
2022-08-05T10:04:35.537Z,4.03
2022-08-05T10:07:14.112Z,1.88
2022-08-05T10:10:15.264Z,2.88
2022-08-05T10:12:49.899Z,3.08
2022-08-05T10:15:26.852Z,1.35
2022-08-05T10:18:08.952Z,2.50
2022-08-05T10:20:55.462Z,1.88
2022-08-05T10:23:56.155Z,3.13
2022-08-05T10:26:14.298Z,2.70
2022-08-05T10:28:46.380Z,0.70
2022-08-05T10:32:47.699Z,1.48
2022-08-05T10:34:02.172Z,1.65
2022-08-05T10:36:29.618Z,5.75
2022-08-05T10:39:10.485Z,2.00
2022-08-05T10:42:00.841Z,1.33
2022-08-05T10:44:29.387Z,2.55
2022-08-05T10:46:56.830Z,2.00
2022-08-05T10:49:27.511Z,2.72
2022-08-05T10:52:03.302Z,1.50
2022-08-05T10:55:01.631Z,1.17
2022-08-05T10:57:29.440Z,0.80
2022-08-05T11:00:29.076Z,0.30
2022-08-05T11:03:23.133Z,1.88
2022-08-05T11:06:15.327Z,1.55
2022-08-05T11:09:16.484Z,0.77
2022-08-05T11:11:52.527Z,1.95
2022-08-05T11:14:42.896Z,0.35
2022-08-05T11:17:59.587Z,1.17
2022-08-05T11:20:47.332Z,1.08
2022-08-05T11:23:33.725Z,1.30
2022-08-05T11:26:28.151Z,1.45
2022-08-05T11:28:56.247Z,5.68
2022-08-05T11:31:57.714Z,0.90
2022-08-05T11:34:18.049Z,0.73
2022-08-05T11:36:53.046Z,3.35
2022-08-05T11:39:49.974Z,1.50
2022-08-05T11:42:28.395Z,0.20
2022-08-05T11:45:03.407Z,0.77
2022-08-05T11:47:49.701Z,0.88
2022-08-05T11:50:17.829Z,1.08
2022-08-05T11:52:46.173Z,1.60
2022-08-05T11:55:16.107Z,1.38
2022-08-05T11:58:10.146Z,2.92
2022-08-05T12:00:32.677Z,2.35
2022-08-05T12:03:31.383Z,1.30
2022-08-05T12:06:00.834Z,1.00
2022-08-05T12:08:27.503Z,0.93
2022-08-05T12:10:58.809Z,1.38
2022-08-05T12:13:47.403Z,1.90
2022-08-05T12:16:18.762Z,1.48
2022-08-05T12:18:52.170Z,2.45
2022-08-05T12:21:21.010Z,0.65
2022-08-05T12:24:08.437Z,1.15
2022-08-05T12:27:09.424Z,0.45
2022-08-05T12:29:38.711Z,1.95
2022-08-05T12:32:07.522Z,1.88
2022-08-05T12:34:37.705Z,1.10
2022-08-05T12:37:17.251Z,0.60
2022-08-05T12:39:51.314Z,1.52
2022-08-05T12:42:20.412Z,1.65
2022-08-05T12:44:47.846Z,1.92
2022-08-05T12:47:28.635Z,3.40
2022-08-05T12:52:37.759Z,3.20
2022-08-05T12:55:28.871Z,0.57
2022-08-05T12:58:52.427Z,1.33
2022-08-05T13:02:03.964Z,2.40
2022-08-05T13:03:39.049Z,1.20
2022-08-05T13:06:11.659Z,1.52
2022-08-05T13:08:38.728Z,0.75
2022-08-05T13:11:07.685Z,1.75
2022-08-05T13:14:06.089Z,0.60
2022-08-05T13:16:27.796Z,2.15
2022-08-05T13:18:58.721Z,1.15
2022-08-05T13:23:54.550Z,3.25
2022-08-05T13:26:24.134Z,4.28
2022-08-05T13:28:56.848Z,2.75
2022-08-05T13:31:34.018Z,1.17
2022-08-05T13:34:21.834Z,2.83
2022-08-05T13:36:52.191Z,0.30
2022-08-05T13:39:24.483Z,2.15
2022-08-05T13:42:05.263Z,2.38
2022-08-05T13:44:32.433Z,1.20
2022-08-05T13:47:04.675Z,0.95
2022-08-05T13:49:35.524Z,2.33
2022-08-05T13:52:17.025Z,1.17
2022-08-05T13:54:43.922Z,1.73
2022-08-05T13:57:20.869Z,1.27
2022-08-05T13:59:59.590Z,0.77
2022-08-05T14:02:29.816Z,0.82
2022-08-05T14:05:15.119Z,0.65
2022-08-05T14:07:59.919Z,0.52
2022-08-05T14:10:32.868Z,2.42
2022-08-05T14:12:59.962Z,1.60
2022-08-05T14:16:04.794Z,1.25
2022-08-05T14:18:17.754Z,1.48
2022-08-05T14:20:52.909Z,1.98
2022-08-05T14:23:24.631Z,1.08
2022-08-05T14:25:54.516Z,1.95
2022-08-05T14:28:26.433Z,0.60
2022-08-05T14:30:53.755Z,3.92
2022-08-05T14:33:22.732Z,1.88
2022-08-05T14:35:51.552Z,1.15
2022-08-05T14:38:31.688Z,1.08
2022-08-05T14:41:02.013Z,1.10
2022-08-05T14:43:59.016Z,2.65
2022-08-05T14:46:18.799Z,1.80
2022-08-05T14:48:49.337Z,2.10
2022-08-05T14:51:17.811Z,1.48
2022-08-05T14:53:45.044Z,2.05
2022-08-05T14:56:12.034Z,0.55
2022-08-05T14:58:39.935Z,1.70
2022-08-05T15:01:16.034Z,2.20
2022-08-05T15:03:43.273Z,1.13
2022-08-05T15:06:14.997Z,1.95
2022-08-05T15:08:59.534Z,1.65
2022-08-05T15:11:43.468Z,1.83
2022-08-05T15:14:34.009Z,1.83
2022-08-05T15:17:04.614Z,2.50
2022-08-05T15:19:31.834Z,1.50
2022-08-05T15:22:00.731Z,2.60
2022-08-05T15:24:28.176Z,2.72
2022-08-05T15:26:56.004Z,1.92
2022-08-05T15:29:30.149Z,1.83
2022-08-05T15:31:57.630Z,1.13
2022-08-05T15:34:32.195Z,1.15
2022-08-05T15:37:03.478Z,4.70
2022-08-05T15:40:58.965Z,1.23
2022-08-05T15:42:53.726Z,1.00
2022-08-05T15:45:06.603Z,1.42
2022-08-05T15:47:35.896Z,1.33
2022-08-05T15:50:03.838Z,1.13
2022-08-05T15:52:54.717Z,0.77
2022-08-05T15:55:19.317Z,0.70
2022-08-05T15:57:51.958Z,9.93
2022-08-05T16:00:26.538Z,1.75
2022-08-05T16:02:59.536Z,3.97
2022-08-05T16:05:28.225Z,1.50
2022-08-05T16:07:54.679Z,2.33
2022-08-05T16:10:25.493Z,3.08
2022-08-05T16:12:53.467Z,1.85
2022-08-05T16:15:22.741Z,1.17
2022-08-05T16:17:57.687Z,1.30
2022-08-05T16:20:25.392Z,1.15
2022-08-05T16:22:51.746Z,0.73
2022-08-05T16:25:18.408Z,1.15
2022-08-05T16:28:00.316Z,0.77
2022-08-05T16:30:32.138Z,0.43
2022-08-05T16:33:00.098Z,1.38
2022-08-05T16:35:28.243Z,1.20
2022-08-05T16:40:30.338Z,2.28
2022-08-05T16:42:57.086Z,2.25
2022-08-05T16:46:04.124Z,2.72
2022-08-05T16:48:10.262Z,2.35
2022-08-05T16:50:37.931Z,5.18
2022-08-05T16:53:12.394Z,4.13
2022-08-05T16:55:49.211Z,2.28
2022-08-05T16:58:15.626Z,2.80
2022-08-05T17:03:20.307Z,1.08
2022-08-05T17:05:53.610Z,2.25
2022-08-05T17:08:35.820Z,1.35
2022-08-05T17:11:08.897Z,1.80
2022-08-05T17:13:43.164Z,1.17
2022-08-05T17:16:28.115Z,1.35
2022-08-05T17:18:56.717Z,3.65
2022-08-05T17:21:23.505Z,1.52
2022-08-05T17:24:04.762Z,3.00
2022-08-05T17:26:35.990Z,2.38
2022-08-05T17:29:04.199Z,3.70
2022-08-05T17:31:57.229Z,3.95
2022-08-05T17:34:20.786Z,2.92
2022-08-05T17:36:57.254Z,4.10
2022-08-05T17:39:34.382Z,2.25
2022-08-05T17:42:17.860Z,1.92
2022-08-05T17:44:50.321Z,2.95
2022-08-05T17:50:00.270Z,2.75
2022-08-05T17:52:31.333Z,1.05
2022-08-05T17:54:57.832Z,2.00
2022-08-05T17:57:24.578Z,3.90
2022-08-05T18:00:03.292Z,1.70
2022-08-05T18:02:32.843Z,2.20
2022-08-05T18:05:02.738Z,0.60
2022-08-05T18:07:32.779Z,2.90
2022-08-05T18:10:10.407Z,0.40
2022-08-05T18:12:37.560Z,0.60
2022-08-05T18:15:05.122Z,3.75
2022-08-05T18:18:01.309Z,2.70
2022-08-05T18:20:19.457Z,2.08
2022-08-05T18:22:57.579Z,1.23
2022-08-05T18:25:25.215Z,0.98
2022-08-05T18:28:01.517Z,1.27
2022-08-05T18:30:31.062Z,2.97
2022-08-05T18:33:00.376Z,1.55
2022-08-05T18:36:00.938Z,2.80
2022-08-05T18:38:16.518Z,2.13
2022-08-05T18:41:55.474Z,2.43
2022-08-05T18:43:37.848Z,2.38
2022-08-05T18:46:09.770Z,3.25
2022-08-05T18:48:41.783Z,3.75
2022-08-05T18:52:05.456Z,0.82
2022-08-05T18:54:14.284Z,1.52
2022-08-05T18:56:40.753Z,1.13
2022-08-05T18:59:42.693Z,3.70
2022-08-05T19:01:57.038Z,2.65
2022-08-05T19:04:25.468Z,2.58
2022-08-05T19:06:53.556Z,0.73
2022-08-05T19:09:21.167Z,3.33
2022-08-05T19:12:00.182Z,2.80
2022-08-05T19:14:53.341Z,7.80
2022-08-05T19:17:15.495Z,1.42
2022-08-05T19:19:46.797Z,2.15
2022-08-05T19:22:17.222Z,4.25
2022-08-05T19:24:56.086Z,2.85
2022-08-05T19:27:24.385Z,1.00
2022-08-05T19:29:57.150Z,2.95
2022-08-05T19:32:26.164Z,0.98
2022-08-05T19:34:54.589Z,2.60
2022-08-05T19:37:35.331Z,1.85
2022-08-05T19:40:12.688Z,1.88
2022-08-05T19:42:41.709Z,1.83
2022-08-05T19:45:27.390Z,0.75
2022-08-05T19:47:59.576Z,1.15
2022-08-05T19:50:26.056Z,1.13
2022-08-05T19:52:52.406Z,3.63
2022-08-05T19:56:15.291Z,2.35
2022-08-05T19:58:28.755Z,4.68
2022-08-05T20:00:52.601Z,3.75
2022-08-05T20:03:19.078Z,3.35
2022-08-05T20:05:51.288Z,4.70
2022-08-05T20:08:18.388Z,4.35
2022-08-05T20:10:44.836Z,1.80
2022-08-05T20:13:16.811Z,4.97
2022-08-05T20:15:52.253Z,2.92
2022-08-05T20:18:33.889Z,3.40
2022-08-05T20:21:05.063Z,2.83
2022-08-05T20:23:40.007Z,2.90
2022-08-05T20:26:19.347Z,1.38
2022-08-05T20:28:48.477Z,1.08
2022-08-05T20:31:16.647Z,4.32
2022-08-05T20:33:44.408Z,2.35
2022-08-05T20:36:11.430Z,2.40
2022-08-05T20:38:40.839Z,2.55
2022-08-05T20:41:23.874Z,2.60
2022-08-05T20:43:59.032Z,2.80
2022-08-05T20:46:26.925Z,4.65
2022-08-05T20:48:53.346Z,3.72
2022-08-05T20:51:21.502Z,2.65
2022-08-05T20:53:56.784Z,1.17
2022-08-05T20:56:29.733Z,4.90
2022-08-05T20:59:00.029Z,3.10
2022-08-05T21:01:38.850Z,3.43
2022-08-05T21:04:07.182Z,3.40
2022-08-05T21:06:37.058Z,1.58
2022-08-05T21:09:06.916Z,4.40
2022-08-05T21:12:07.268Z,4.88
2022-08-05T21:14:19.928Z,3.33
2022-08-05T21:16:46.445Z,4.00
2022-08-05T21:19:13.089Z,2.17
2022-08-05T21:21:50.545Z,5.43
2022-08-05T21:24:19.499Z,2.85
2022-08-05T21:26:58.516Z,1.63
2022-08-05T21:29:31.850Z,4.80
2022-08-05T21:31:58.721Z,1.92
2022-08-05T21:34:25.114Z,2.70
2022-08-05T21:36:51.619Z,2.78
2022-08-05T21:39:26.621Z,2.35
2022-08-05T21:42:01.684Z,2.35
2022-08-05T21:44:29.735Z,2.58
2022-08-05T21:46:58.244Z,4.35
2022-08-05T21:50:00.199Z,2.20
2022-08-05T21:52:22.028Z,1.83
2022-08-05T21:54:55.115Z,3.67
2022-08-05T21:57:31.724Z,3.13
2022-08-05T22:00:05.798Z,3.40
2022-08-05T22:02:33.741Z,3.28
2022-08-05T22:05:00.190Z,2.28
2022-08-05T22:07:54.155Z,6.40
2022-08-05T22:10:15.193Z,4.18
2022-08-05T22:12:44.937Z,5.93
2022-08-05T22:16:04.680Z,4.43
2022-08-05T22:18:05.030Z,5.03
2022-08-05T22:20:31.568Z,2.28
2022-08-05T22:23:21.681Z,3.50
2022-08-05T22:26:09.566Z,5.65
2022-08-05T22:28:37.374Z,2.63
2022-08-05T22:31:05.888Z,5.30
2022-08-05T22:33:56.944Z,5.15
2022-08-05T22:36:19.399Z,3.80
2022-08-05T22:38:51.345Z,1.25
2022-08-05T22:42:04.847Z,6.80
2022-08-05T22:44:07.206Z,3.33
2022-08-05T22:46:33.619Z,2.78
2022-08-05T22:49:06.217Z,3.58
2022-08-05T22:52:04.579Z,5.30
2022-08-05T22:54:19.101Z,3.97
2022-08-05T22:56:50.233Z,5.43
2022-08-05T22:59:42.492Z,5.50
2022-08-05T23:02:06.112Z,5.03
2022-08-05T23:04:34.253Z,5.20
2022-08-05T23:07:01.091Z,1.35
2022-08-05T23:09:57.197Z,7.07
2022-08-05T23:12:16.155Z,2.65
2022-08-05T23:14:43.785Z,2.38
2022-08-05T23:17:34.723Z,1.58
2022-08-05T23:20:10.139Z,5.63
2022-08-05T23:22:43.328Z,4.00
2022-08-05T23:25:13.926Z,2.63
2022-08-05T23:28:00.190Z,3.33
2022-08-05T23:30:29.138Z,4.78
2022-08-05T23:32:57.742Z,9.27
2022-08-05T23:35:25.512Z,3.70
2022-08-05T23:37:55.359Z,7.95
2022-08-05T23:40:27.142Z,8.45
2022-08-05T23:42:53.914Z,3.42
2022-08-05T23:45:23.541Z,2.83
2022-08-05T23:47:52.026Z,1.92
2022-08-05T23:50:20.611Z,5.32
2022-08-05T23:52:49.843Z,3.67
2022-08-05T23:55:18.939Z,4.25
2022-08-05T23:57:51.092Z,4.63
